Time;durP1;ratioP1;P1;durP2;ratioP2;P2;SDS_P1;SDS_P2;PMS_P1;PMS_P2;Temp;Humidity;BMP_temperature;BMP_pressure;BME280_temperature;BME280_humidity;BME280_pressure;Samples;Min_cycle;Max_cycle;Signal;HPM_P1;HPM_P2
2022/11/08 00:01:59;;;;;;;11.70;3.30;;;13.30;99.60;;;;;;5002449;28;20034;-71
2022/11/08 00:04:25;;;;;;;6.82;2.95;;;13.40;99.60;;;;;;5000637;28;20563;-71
2022/11/08 00:15:07;;;;;;;6.50;2.67;;;13.30;99.60;;;;;;5000603;28;20132;-71
2022/11/08 00:17:32;;;;;;;6.05;2.75;;;13.30;99.60;;;;;;5002427;28;20037;-72
2022/11/08 00:19:58;;;;;;;8.63;3.65;;;13.30;99.60;;;;;;5003296;28;20030;-72
2022/11/08 00:22:24;;;;;;;4.97;2.42;;;13.20;99.70;;;;;;5001176;28;20058;-72
2022/11/08 00:24:50;;;;;;;9.85;2.63;;;13.20;99.70;;;;;;5001487;28;20115;-71
2022/11/08 00:27:22;;;;;;;5.07;2.78;;;13.30;99.70;;;;;;5002652;28;20412;-71
2022/11/08 00:29:48;;;;;;;8.32;2.70;;;13.20;99.70;;;;;;5000322;28;20038;-72
2022/11/08 00:32:18;;;;;;;5.90;2.38;;;13.20;99.70;;;;;;5001582;28;20065;-72
2022/11/08 00:34:44;;;;;;;6.00;3.13;;;13.20;99.80;;;;;;5001446;28;20049;-72
2022/11/08 00:37:10;;;;;;;6.20;2.80;;;13.20;99.80;;;;;;4999514;28;20379;-72
2022/11/08 00:39:36;;;;;;;7.63;2.75;;;13.10;99.80;;;;;;5000473;28;20075;-72
2022/11/08 00:42:03;;;;;;;5.35;2.85;;;13.10;99.80;;;;;;5002091;28;20010;-72
2022/11/08 00:44:28;;;;;;;8.27;2.63;;;13.10;99.80;;;;;;5000525;28;20412;-72
2022/11/08 00:46:54;;;;;;;6.00;2.67;;;13.10;99.80;;;;;;5002952;28;20025;-72
2022/11/08 00:49:20;;;;;;;4.93;2.90;;;13.10;99.80;;;;;;5005349;28;20030;-72
2022/11/08 00:51:47;;;;;;;6.22;2.72;;;13.00;99.90;;;;;;5003764;28;20087;-72
2022/11/08 00:54:15;;;;;;;7.22;2.90;;;13.00;99.90;;;;;;5002238;28;20689;-72
2022/11/08 00:56:42;;;;;;;6.55;2.67;;;13.00;99.90;;;;;;5003278;28;20029;-72
2022/11/08 00:59:12;;;;;;;4.82;2.58;;;13.00;99.90;;;;;;4999783;28;20038;-72
2022/11/08 01:01:40;;;;;;;6.30;2.72;;;13.00;99.90;;;;;;5005087;28;22455;-72
2022/11/08 01:04:10;;;;;;;6.90;2.78;;;13.00;99.90;;;;;;5006661;28;20044;-72
2022/11/08 01:06:38;;;;;;;7.43;2.92;;;12.90;99.90;;;;;;5004885;28;20030;-72
2022/11/08 01:09:04;;;;;;;9.68;3.00;;;12.90;99.90;;;;;;5004513;28;20033;-71
2022/11/08 01:11:30;;;;;;;7.60;2.80;;;12.90;99.90;;;;;;5003487;28;20072;-71
2022/11/08 01:13:58;;;;;;;3.63;2.53;;;12.90;99.90;;;;;;5004397;28;20050;-72
2022/11/08 01:16:29;;;;;;;7.55;3.00;;;12.90;99.90;;;;;;5007115;28;20033;-71
2022/11/08 01:18:56;;;;;;;5.28;2.80;;;12.80;99.90;;;;;;5001703;28;20033;-71
2022/11/08 01:21:22;;;;;;;7.20;2.63;;;12.80;99.90;;;;;;5002999;28;20117;-71
2022/11/08 01:23:47;;;;;;;7.50;3.38;;;12.80;99.90;;;;;;5002844;28;20066;-71
2022/11/08 01:26:16;;;;;;;7.68;3.33;;;12.80;99.90;;;;;;5005415;28;20100;-71
2022/11/08 01:28:42;;;;;;;7.65;2.83;;;12.80;99.90;;;;;;5001889;28;20040;-71
2022/11/08 01:31:16;;;;;;;6.38;3.20;;;12.80;99.90;;;;;;5004664;28;20124;-72
2022/11/08 01:33:42;;;;;;;;;;;12.80;99.90;;;;;;5003851;28;20502;-72
2022/11/08 01:36:10;;;;;;;3.83;2.40;;;12.80;99.90;;;;;;5001559;28;20008;-72
2022/11/08 01:38:36;;;;;;;5.57;3.38;;;12.70;99.90;;;;;;5000903;28;20040;-72
2022/11/08 01:41:02;;;;;;;7.00;3.15;;;12.70;99.90;;;;;;5010854;28;20126;-73
2022/11/08 01:43:36;;;;;;;5.30;2.88;;;12.70;99.90;;;;;;5006233;28;20053;-72
2022/11/08 01:46:17;;;;;;;7.15;3.63;;;12.70;99.90;;;;;;5006462;28;20109;-73
2022/11/08 01:49:18;;;;;;;4.28;2.65;;;12.70;99.90;;;;;;5000344;28;20702;-72
2022/11/08 01:51:51;;;;;;;6.75;3.15;;;12.60;99.90;;;;;;5001696;28;20036;-72
2022/11/08 01:54:22;;;;;;;5.50;2.97;;;12.60;99.90;;;;;;5003941;28;20069;-72
2022/11/08 01:56:50;;;;;;;5.88;2.92;;;12.60;99.90;;;;;;5005788;28;20113;-71
2022/11/08 01:59:17;;;;;;;4.88;2.80;;;12.60;99.90;;;;;;5002868;28;20157;-72
2022/11/08 02:01:43;;;;;;;10.80;3.45;;;12.60;99.90;;;;;;5002697;28;20521;-71
2022/11/08 02:04:09;;;;;;;6.85;2.97;;;12.60;99.90;;;;;;5002368;28;20048;-72
2022/11/08 02:06:37;;;;;;;7.38;3.15;;;12.60;99.90;;;;;;5004614;28;20026;-71
2022/11/08 02:09:07;;;;;;;7.38;3.00;;;12.60;99.90;;;;;;5002277;28;20022;-71
2022/11/08 02:11:34;;;;;;;5.75;2.78;;;12.60;99.90;;;;;;5003038;28;20022;-71
2022/11/08 02:14:01;;;;;;;5.53;2.63;;;12.70;99.90;;;;;;5007375;28;20488;-71
2022/11/08 02:16:27;;;;;;;6.90;2.90;;;12.70;99.90;;;;;;5012139;28;20052;-71
2022/11/08 02:18:53;;;;;;;3.97;2.42;;;12.70;99.90;;;;;;5013581;28;20114;-71
2022/11/08 02:21:47;;;;;;;7.03;2.95;;;12.70;99.90;;;;;;5005012;28;20045;-71
2022/11/08 02:24:13;;;;;;;7.40;2.50;;;12.80;99.90;;;;;;5005621;28;20509;-71
2022/11/08 02:26:40;;;;;;;4.43;2.42;;;12.70;99.90;;;;;;5019049;28;20113;-71
2022/11/08 02:29:26;;;;;;;5.20;2.63;;;12.80;99.90;;;;;;5004701;28;20041;-71
2022/11/08 02:31:53;;;;;;;8.68;2.83;;;12.70;99.90;;;;;;5003899;28;20172;-71
2022/11/08 02:34:43;;;;;;;9.98;3.35;;;12.80;99.90;;;;;;5003501;28;20038;-71
2022/11/08 02:37:12;;;;;;;6.28;3.22;;;12.80;99.90;;;;;;5000350;28;20033;-71
2022/11/08 02:39:37;;;;;;;7.60;3.10;;;12.80;99.90;;;;;;4997891;28;20026;-72
2022/11/08 02:42:04;;;;;;;6.60;3.10;;;12.80;99.90;;;;;;4999373;28;20034;-72
2022/11/08 02:44:30;;;;;;;8.75;2.85;;;12.80;99.90;;;;;;5001252;28;20060;-72
2022/11/08 02:46:55;;;;;;;7.72;3.20;;;12.80;99.90;;;;;;4999578;28;20401;-72
2022/11/08 02:49:21;;;;;;;8.65;2.95;;;12.80;99.90;;;;;;5000701;28;20643;-72
2022/11/08 02:51:46;;;;;;;6.22;2.97;;;12.80;99.90;;;;;;5003372;28;20034;-71
2022/11/08 02:54:12;;;;;;;6.43;2.92;;;12.70;99.90;;;;;;5002038;28;20029;-71
2022/11/08 02:56:38;;;;;;;6.32;2.83;;;12.70;99.90;;;;;;5000808;28;20026;-71
2022/11/08 02:59:05;;;;;;;8.52;3.88;;;12.70;99.90;;;;;;5003793;28;20029;-71
2022/11/08 03:01:30;;;;;;;6.55;3.00;;;12.70;99.90;;;;;;5000355;28;20029;-70
2022/11/08 03:03:56;;;;;;;5.90;3.00;;;12.70;99.90;;;;;;4999897;28;20041;-70
2022/11/08 03:06:22;;;;;;;4.32;2.58;;;12.70;99.90;;;;;;5000080;28;20084;-71
2022/11/08 03:08:47;;;;;;;5.03;3.15;;;12.70;99.90;;;;;;5003100;28;20037;-71
2022/11/08 03:11:13;;;;;;;6.93;2.85;;;12.70;99.90;;;;;;5003580;28;20629;-71
2022/11/08 03:13:38;;;;;;;7.45;2.88;;;12.70;99.90;;;;;;5001163;28;20025;-71
2022/11/08 03:16:05;;;;;;;5.72;2.70;;;12.70;99.90;;;;;;5000856;28;20599;-71
2022/11/08 03:18:31;;;;;;;6.30;2.80;;;12.70;99.90;;;;;;5002784;28;22499;-71
2022/11/08 03:21:00;;;;;;;7.50;2.85;;;12.60;99.90;;;;;;5001285;28;20038;-71
2022/11/08 03:23:26;;;;;;;5.68;3.00;;;12.60;99.90;;;;;;5000716;28;20057;-71
2022/11/08 03:25:51;;;;;;;6.25;2.80;;;12.60;99.90;;;;;;5000722;28;20585;-71
2022/11/08 03:28:17;;;;;;;4.28;2.75;;;12.60;99.90;;;;;;5005288;28;20648;-71
2022/11/08 03:30:42;;;;;;;5.80;2.83;;;12.60;99.90;;;;;;4999956;28;20497;-71
2022/11/08 03:33:10;;;;;;;6.75;3.38;;;12.60;99.90;;;;;;5000244;28;20112;-71
2022/11/08 03:35:37;;;;;;;5.47;2.70;;;12.60;99.90;;;;;;5000508;28;20043;-71
2022/11/08 03:38:02;;;;;;;6.72;3.03;;;12.60;99.90;;;;;;5001527;28;20054;-71
2022/11/08 03:40:28;;;;;;;5.93;3.33;;;12.60;99.90;;;;;;5001499;28;20021;-71
2022/11/08 03:42:56;;;;;;;4.15;3.00;;;12.60;99.90;;;;;;5000806;28;20125;-71
2022/11/08 03:45:22;;;;;;;6.22;3.20;;;12.70;99.90;;;;;;5001427;28;20029;-71
2022/11/08 03:47:47;;;;;;;6.25;2.90;;;12.70;99.90;;;;;;4999234;28;20042;-71
2022/11/08 03:50:15;;;;;;;5.72;2.65;;;12.70;99.90;;;;;;5003769;28;20025;-71
2022/11/08 03:52:58;;;;;;;5.47;2.70;;;12.70;99.90;;;;;;4999774;28;20052;-71
2022/11/08 03:55:26;;;;;;;4.53;2.92;;;12.70;99.90;;;;;;5000446;28;20504;-71
2022/11/08 03:57:52;;;;;;;5.05;2.63;;;12.70;99.90;;;;;;4999731;28;20038;-71
2022/11/08 04:00:24;;;;;;;3.97;2.65;;;12.70;99.90;;;;;;5000674;28;20040;-71
2022/11/08 04:02:50;;;;;;;7.57;2.95;;;12.70;99.90;;;;;;5000586;28;20542;-71
2022/11/08 04:05:16;;;;;;;6.35;3.30;;;12.70;99.90;;;;;;5002154;28;20887;-71
2022/11/08 04:07:44;;;;;;;9.05;3.30;;;12.60;99.90;;;;;;5000630;28;21034;-71
2022/11/08 04:10:11;;;;;;;6.00;2.97;;;12.60;99.90;;;;;;4999527;28;20034;-71
2022/11/08 04:15:27;;;;;;;6.35;3.10;;;12.60;99.90;;;;;;4995973;28;20060;-72
2022/11/08 04:23:29;;;;;;;7.47;2.88;;;12.50;99.90;;;;;;5004255;28;20108;-72
2022/11/08 04:26:00;;;;;;;5.70;2.60;;;12.50;99.90;;;;;;5002777;28;20034;-72
2022/11/08 04:28:29;;;;;;;8.30;3.00;;;12.50;99.90;;;;;;5003268;28;20128;-72
2022/11/08 04:30:57;;;;;;;7.72;3.15;;;12.40;99.90;;;;;;5005433;28;20038;-72
2022/11/08 04:33:23;;;;;;;6.47;3.13;;;12.40;99.90;;;;;;5004559;28;20029;-72
2022/11/08 04:35:49;;;;;;;8.07;3.17;;;12.30;99.90;;;;;;5006387;28;20144;-72
2022/11/08 04:38:16;;;;;;;7.65;3.22;;;12.30;99.90;;;;;;5004772;28;20111;-71
2022/11/08 04:40:42;;;;;;;7.93;3.15;;;12.30;99.90;;;;;;5004370;28;20030;-73
2022/11/08 04:43:08;;;;;;;8.85;3.58;;;12.30;99.90;;;;;;5004858;28;20048;-72
2022/11/08 04:45:33;;;;;;;9.30;3.90;;;12.20;99.90;;;;;;5008577;28;20025;-72
2022/11/08 04:47:59;;;;;;;8.20;3.88;;;12.20;99.90;;;;;;5014176;28;20071;-72
2022/11/08 04:50:25;;;;;;;4.97;2.97;;;12.20;99.90;;;;;;5007913;28;20057;-71
2022/11/08 04:52:52;;;;;;;9.00;3.05;;;12.20;99.90;;;;;;5005370;28;20022;-71
2022/11/08 04:55:19;;;;;;;7.88;2.90;;;12.10;99.90;;;;;;5002635;28;20046;-70
2022/11/08 04:57:45;;;;;;;7.85;3.47;;;12.10;99.90;;;;;;4993683;28;20026;-70
2022/11/08 05:00:11;;;;;;;5.45;3.20;;;12.10;99.90;;;;;;5003303;28;20022;-69
2022/11/08 05:02:37;;;;;;;6.40;3.25;;;12.00;99.90;;;;;;5002836;28;20026;-70
2022/11/08 05:05:03;;;;;;;7.13;3.58;;;12.00;99.90;;;;;;5005194;28;20060;-70
2022/11/08 05:07:28;;;;;;;8.77;3.30;;;12.00;99.90;;;;;;5003281;28;20385;-71
2022/11/08 05:09:55;;;;;;;6.60;3.05;;;12.00;99.90;;;;;;5004888;28;20030;-70
2022/11/08 05:12:20;;;;;;;8.77;3.47;;;12.00;99.90;;;;;;5006513;28;20613;-70
2022/11/08 05:14:46;;;;;;;5.78;3.13;;;11.90;99.90;;;;;;5003057;28;20145;-71
2022/11/08 05:17:12;;;;;;;6.35;2.92;;;11.90;99.90;;;;;;5003266;28;20056;-70
2022/11/08 05:25:07;;;;;;;9.07;3.65;;;11.80;99.90;;;;;;5002119;28;20140;-70
2022/11/08 05:27:33;;;;;;;6.88;3.50;;;11.80;99.90;;;;;;5004045;28;20026;-70
2022/11/08 05:29:59;;;;;;;5.38;3.13;;;11.80;99.90;;;;;;5003489;28;20378;-71
2022/11/08 05:32:25;;;;;;;5.68;3.10;;;11.80;99.90;;;;;;5003275;28;20435;-71
2022/11/08 05:34:51;;;;;;;5.15;2.70;;;11.70;99.90;;;;;;5003694;28;20037;-71
2022/11/08 05:37:16;;;;;;;4.57;3.05;;;11.70;99.90;;;;;;5002373;28;20032;-70
2022/11/08 05:39:42;;;;;;;7.60;3.65;;;11.70;99.90;;;;;;5000871;28;20195;-71
2022/11/08 05:42:08;;;;;;;5.60;3.30;;;11.70;99.90;;;;;;5003558;28;20026;-71
2022/11/08 05:44:33;;;;;;;7.30;3.22;;;11.70;99.90;;;;;;5004592;28;20474;-71
2022/11/08 05:46:59;;;;;;;7.93;3.38;;;11.70;99.90;;;;;;5005896;28;20127;-72
2022/11/08 05:49:25;;;;;;;5.95;3.55;;;11.60;99.90;;;;;;5003595;28;20782;-71
2022/11/08 05:51:50;;;;;;;8.40;3.63;;;11.60;99.90;;;;;;5005474;28;20036;-71
2022/11/08 05:54:16;;;;;;;6.45;3.38;;;11.60;99.90;;;;;;5002311;28;20041;-71
2022/11/08 05:56:42;;;;;;;5.47;3.00;;;11.60;99.90;;;;;;5004162;28;20058;-71
2022/11/08 05:59:07;;;;;;;7.85;3.72;;;11.60;99.90;;;;;;5002498;28;20025;-73
2022/11/08 06:01:33;;;;;;;7.50;3.50;;;11.50;99.90;;;;;;5002215;28;20473;-70
2022/11/08 06:03:59;;;;;;;7.28;3.13;;;11.40;99.90;;;;;;5010444;28;20437;-71
2022/11/08 06:06:24;;;;;;;5.43;3.10;;;11.50;99.90;;;;;;5003081;28;20040;-70
2022/11/08 06:08:50;;;;;;;7.20;4.05;;;11.50;99.90;;;;;;5004322;28;20034;-69
2022/11/08 06:11:20;;;;;;;5.00;3.00;;;11.50;99.90;;;;;;5003250;28;20033;-70
2022/11/08 06:13:46;;;;;;;8.35;3.83;;;11.50;99.90;;;;;;5007470;28;20112;-70
2022/11/08 06:16:13;;;;;;;10.27;3.65;;;11.50;99.90;;;;;;5003556;28;20121;-70
2022/11/08 06:18:42;;;;;;;8.27;3.70;;;11.50;99.90;;;;;;5005187;28;20030;-70
2022/11/08 06:21:11;;;;;;;7.18;3.72;;;11.40;99.90;;;;;;5002522;28;20117;-70
2022/11/08 06:23:37;;;;;;;4.78;3.03;;;11.40;99.90;;;;;;5002208;28;20061;-71
2022/11/08 06:26:03;;;;;;;14.05;5.13;;;11.40;99.90;;;;;;5000035;28;20026;-71
2022/11/08 06:28:29;;;;;;;6.78;3.00;;;11.50;99.90;;;;;;4999894;28;20034;-71
2022/11/08 06:30:58;;;;;;;10.75;3.63;;;11.40;99.90;;;;;;5003211;28;20037;-73
2022/11/08 06:33:24;;;;;;;7.80;4.20;;;11.50;99.90;;;;;;5003156;28;20022;-73
2022/11/08 06:35:49;;;;;;;4.90;3.28;;;11.40;99.90;;;;;;5001059;28;20042;-73
2022/11/08 06:38:15;;;;;;;7.80;3.47;;;11.40;99.90;;;;;;4998960;28;20053;-73
2022/11/08 06:40:41;;;;;;;8.65;3.70;;;11.40;99.90;;;;;;5000597;28;20435;-73
2022/11/08 06:43:11;;;;;;;4.03;3.17;;;11.40;99.90;;;;;;4997480;28;20041;-73
2022/11/08 06:45:38;;;;;;;6.00;3.10;;;11.50;99.90;;;;;;5000862;28;20026;-74
2022/11/08 06:48:05;;;;;;;8.80;3.92;;;11.50;99.90;;;;;;5000250;28;20055;-73
2022/11/08 06:50:32;;;;;;;4.63;3.08;;;11.50;99.90;;;;;;5001111;28;20066;-73
2022/11/08 06:53:02;;;;;;;6.22;3.30;;;11.50;99.90;;;;;;5002745;28;20050;-71
2022/11/08 06:55:28;;;;;;;5.63;3.10;;;11.50;99.90;;;;;;5002667;28;20045;-72
2022/11/08 06:57:54;;;;;;;5.85;3.40;;;11.50;99.90;;;;;;4997119;28;20037;-75
2022/11/08 07:00:21;;;;;;;9.15;3.65;;;11.50;99.90;;;;;;5000942;28;20436;-69
2022/11/08 07:02:55;;;;;;;8.38;3.60;;;11.40;99.90;;;;;;4999173;28;20608;-69
2022/11/08 07:05:21;;;;;;;5.83;3.70;;;11.50;99.90;;;;;;4999651;28;20105;-70
2022/11/08 07:07:51;;;;;;;8.52;3.60;;;11.40;99.90;;;;;;5001506;28;20034;-70
2022/11/08 07:10:18;;;;;;;8.48;3.70;;;11.50;99.90;;;;;;5004451;28;20034;-70
2022/11/08 07:12:44;;;;;;;7.63;3.78;;;11.50;99.90;;;;;;5003633;28;20040;-70
2022/11/08 07:15:10;;;;;;;6.90;3.28;;;11.50;99.90;;;;;;5000632;28;20034;-68
2022/11/08 07:17:36;;;;;;;6.70;3.63;;;11.50;99.90;;;;;;5005298;28;20114;-67
2022/11/08 07:20:01;;;;;;;6.15;3.45;;;11.50;99.90;;;;;;4999310;28;20061;-70
2022/11/08 07:22:27;;;;;;;5.80;3.45;;;11.60;99.90;;;;;;5001069;28;20513;-70
2022/11/08 07:24:53;;;;;;;5.93;3.33;;;11.60;99.90;;;;;;4999260;28;20076;-72
2022/11/08 07:27:19;;;;;;;10.07;3.70;;;11.60;99.90;;;;;;5001661;28;20057;-71
2022/11/08 07:29:46;;;;;;;7.40;3.55;;;11.60;99.90;;;;;;5004161;28;20528;-73
2022/11/08 07:32:12;;;;;;;7.13;3.58;;;11.60;99.90;;;;;;5004828;28;20030;-71
2022/11/08 07:34:39;;;;;;;7.63;3.33;;;11.60;99.90;;;;;;5003471;28;20094;-70
2022/11/08 07:37:05;;;;;;;8.30;3.90;;;11.60;99.90;;;;;;5005807;28;20037;-71
2022/11/08 07:39:30;;;;;;;7.40;3.35;;;11.70;99.90;;;;;;5005494;28;20812;-70
2022/11/08 07:41:56;;;;;;;8.80;3.42;;;11.70;99.90;;;;;;5005083;28;20069;-71
2022/11/08 07:44:21;;;;;;;8.30;3.50;;;11.70;99.90;;;;;;5001437;28;20091;-72
2022/11/08 07:46:49;;;;;;;6.57;3.80;;;11.70;99.90;;;;;;5003959;28;20411;-72
2022/11/08 07:49:15;;;;;;;6.97;3.75;;;11.80;99.90;;;;;;4999726;28;20042;-71
2022/11/08 07:51:40;;;;;;;7.18;3.70;;;11.80;99.90;;;;;;5002608;28;20051;-71
2022/11/08 07:54:06;;;;;;;8.10;4.07;;;11.80;99.90;;;;;;5003989;28;20030;-70
2022/11/08 07:56:31;;;;;;;7.05;3.35;;;11.90;99.90;;;;;;5001876;28;20033;-71
2022/11/08 07:58:57;;;;;;;10.43;3.92;;;11.90;99.90;;;;;;5006534;28;20623;-70
2022/11/08 08:01:22;;;;;;;6.20;3.70;;;12.00;99.90;;;;;;5007696;28;20052;-69
2022/11/08 08:03:48;;;;;;;8.90;4.00;;;12.00;99.90;;;;;;5009504;28;20454;-69
2022/11/08 08:06:14;;;;;;;10.50;3.55;;;12.10;99.90;;;;;;5009351;28;20056;-69
2022/11/08 08:08:39;;;;;;;7.70;3.83;;;12.10;99.90;;;;;;5001601;28;20795;-70
2022/11/08 08:11:05;;;;;;;9.63;3.67;;;12.20;99.90;;;;;;5001714;28;20167;-70
2022/11/08 08:13:31;;;;;;;7.28;3.72;;;12.20;99.90;;;;;;4999246;28;20037;-67
2022/11/08 08:15:58;;;;;;;7.00;3.80;;;12.30;99.90;;;;;;5005700;28;20041;-67
2022/11/08 08:18:24;;;;;;;9.00;3.80;;;12.30;99.90;;;;;;4997082;28;20153;-67
2022/11/08 08:20:49;;;;;;;7.05;3.25;;;12.30;99.90;;;;;;5000724;28;20121;-68
2022/11/08 08:23:15;;;;;;;6.47;3.60;;;12.30;99.90;;;;;;4998935;28;20038;-68
2022/11/08 08:25:41;;;;;;;5.90;3.33;;;12.30;99.90;;;;;;4999197;28;20549;-67
2022/11/08 08:28:06;;;;;;;7.32;3.47;;;12.40;99.90;;;;;;5012751;28;20048;-69
2022/11/08 08:30:33;;;;;;;8.38;3.70;;;12.50;99.90;;;;;;5002093;28;20037;-70
2022/11/08 08:33:07;;;;;;;11.52;3.70;;;12.50;99.90;;;;;;5000736;28;20030;-70
2022/11/08 08:35:36;;;;;;;;;;;12.50;99.90;;;;;;5001432;28;20147;-70
2022/11/08 08:38:04;;;;;;;6.25;3.08;;;12.60;99.90;;;;;;5003333;28;20372;-70
2022/11/08 08:40:30;;;;;;;5.10;3.03;;;12.60;99.90;;;;;;4999335;28;20117;-69
2022/11/08 08:42:59;;;;;;;8.35;4.00;;;12.60;99.90;;;;;;5002169;28;20034;-70
2022/11/08 08:45:26;;;;;;;8.35;3.67;;;12.60;99.90;;;;;;5002033;28;20037;-70
2022/11/08 08:47:53;;;;;;;6.38;3.00;;;12.70;99.90;;;;;;5002146;28;20034;-70
2022/11/08 08:50:19;;;;;;;9.65;3.92;;;12.80;99.90;;;;;;5001142;28;20036;-70
2022/11/08 08:52:45;;;;;;;5.25;3.30;;;12.80;99.90;;;;;;5000579;28;20030;-69
2022/11/08 08:55:11;;;;;;;6.47;3.20;;;12.90;99.90;;;;;;5001458;28;20893;-69
2022/11/08 08:57:37;;;;;;;10.40;3.50;;;12.90;99.90;;;;;;5000374;28;20026;-69
2022/11/08 09:00:03;;;;;;;8.63;3.42;;;13.00;99.90;;;;;;4999399;28;20037;-70
2022/11/08 09:02:29;;;;;;;10.50;3.97;;;13.00;99.90;;;;;;4998759;28;20057;-70
2022/11/08 09:04:55;;;;;;;7.57;3.70;;;13.10;99.90;;;;;;5000818;28;20030;-70
2022/11/08 09:07:21;;;;;;;6.25;3.15;;;13.20;99.90;;;;;;5004575;28;20034;-70
2022/11/08 09:09:46;;;;;;;8.40;3.20;;;13.20;99.90;;;;;;5001386;28;20022;-71
2022/11/08 09:12:12;;;;;;;9.32;3.33;;;13.30;99.90;;;;;;5001816;28;20037;-70
2022/11/08 09:14:37;;;;;;;6.78;2.88;;;13.30;99.90;;;;;;5002138;28;20068;-70
2022/11/08 09:17:03;;;;;;;7.85;3.33;;;13.40;99.90;;;;;;5004236;28;20029;-71
2022/11/08 09:19:28;;;;;;;4.78;2.85;;;13.50;99.90;;;;;;5007156;28;20088;-70
2022/11/08 09:21:54;;;;;;;6.10;2.88;;;13.50;99.90;;;;;;4999686;28;20156;-71
2022/11/08 09:24:20;;;;;;;5.70;3.20;;;13.60;99.90;;;;;;5001213;28;20022;-70
2022/11/08 09:26:45;;;;;;;6.10;3.00;;;13.60;99.90;;;;;;5003722;28;20089;-69
2022/11/08 09:29:11;;;;;;;5.85;2.72;;;13.70;99.90;;;;;;5000612;28;20765;-69
2022/11/08 09:31:36;;;;;;;7.28;2.90;;;13.70;99.90;;;;;;4999157;28;21637;-70
2022/11/08 09:34:02;;;;;;;5.90;2.58;;;13.80;99.90;;;;;;5003968;28;20041;-70
2022/11/08 09:36:27;;;;;;;6.30;2.90;;;13.80;99.90;;;;;;5003371;28;20397;-68
2022/11/08 09:38:53;;;;;;;8.15;3.30;;;13.90;99.90;;;;;;5004080;28;20022;-69
2022/11/08 09:41:53;;;;;;;4.65;2.60;;;13.90;99.90;;;;;;5003718;28;20026;-67
2022/11/08 09:44:54;;;;;;;6.80;3.08;;;14.00;99.90;;;;;;5002769;28;20165;-69
2022/11/08 09:47:24;;;;;;;6.57;2.90;;;14.00;99.90;;;;;;5005693;28;20033;-70
2022/11/08 09:50:43;;;;;;;6.45;3.00;;;14.10;99.90;;;;;;5002469;28;20085;-70
2022/11/08 09:53:39;;;;;;;8.52;2.95;;;14.20;99.90;;;;;;5001370;28;20504;-69
2022/11/08 09:56:29;;;;;;;7.78;3.05;;;14.20;99.90;;;;;;5001809;28;20056;-70
2022/11/08 09:59:27;;;;;;;6.07;2.85;;;14.30;99.90;;;;;;5015533;28;20052;-69
2022/11/08 10:01:53;;;;;;;5.25;2.85;;;14.40;99.90;;;;;;5001505;28;20033;-70
2022/11/08 10:04:22;;;;;;;5.72;3.08;;;14.40;99.90;;;;;;5001300;28;20026;-69
2022/11/08 10:07:21;;;;;;;6.45;2.70;;;14.50;99.90;;;;;;5001779;28;20041;-70
2022/11/08 10:10:21;;;;;;;7.38;2.22;;;14.60;99.90;;;;;;5002408;28;20030;-72
2022/11/08 10:12:58;;;;;;;7.57;2.90;;;14.70;99.90;;;;;;5003292;28;20037;-70
2022/11/08 10:15:44;;;;;;;4.82;2.72;;;14.70;99.90;;;;;;5002137;28;20034;-70
2022/11/08 10:18:30;;;;;;;5.18;2.75;;;14.80;99.90;;;;;;5001246;28;20038;-70
2022/11/08 10:21:06;;;;;;;9.27;2.97;;;14.90;99.90;;;;;;5001433;28;20034;-69
2022/11/08 10:24:11;;;;;;;7.20;2.65;;;14.90;99.90;;;;;;5001634;28;20057;-69
2022/11/08 10:26:41;;;;;;;5.93;2.55;;;15.00;99.90;;;;;;5013233;28;20038;-69
2022/11/08 10:29:14;;;;;;;5.10;2.70;;;15.10;99.90;;;;;;5004077;28;20118;-69
2022/11/08 10:31:41;;;;;;;5.72;2.65;;;15.10;99.90;;;;;;5000697;28;20083;-69
2022/11/08 10:34:16;;;;;;;4.85;2.38;;;15.10;99.90;;;;;;5001207;28;20034;-69
2022/11/08 10:36:48;;;;;;;5.10;2.75;;;15.20;99.90;;;;;;5001051;28;20033;-70
2022/11/08 10:39:17;;;;;;;5.93;3.20;;;15.30;99.90;;;;;;5001096;28;20041;-69
2022/11/08 10:42:04;;;;;;;5.35;2.72;;;15.30;99.90;;;;;;4999965;28;20038;-69
2022/11/08 10:44:30;;;;;;;6.78;2.80;;;15.40;99.90;;;;;;5001367;28;20065;-69
2022/11/08 10:46:56;;;;;;;5.30;2.13;;;15.50;99.90;;;;;;5001039;28;20034;-70
2022/11/08 10:49:31;;;;;;;3.95;1.85;;;15.50;99.90;;;;;;4999760;28;20033;-70
2022/11/08 10:52:00;;;;;;;7.15;2.70;;;15.60;99.90;;;;;;5004077;28;20030;-70
2022/11/08 10:54:44;;;;;;;5.30;2.75;;;15.60;99.90;;;;;;5000389;28;20053;-69
2022/11/08 10:57:13;;;;;;;4.85;2.30;;;15.70;99.90;;;;;;5001134;28;20041;-69
2022/11/08 10:59:40;;;;;;;5.10;2.38;;;15.70;99.70;;;;;;4998450;28;20037;-70
2022/11/08 11:02:28;;;;;;;5.60;2.85;;;15.80;99.70;;;;;;5003261;28;20033;-69
2022/11/08 11:05:17;;;;;;;3.92;2.42;;;15.80;99.60;;;;;;5002117;28;20030;-70
2022/11/08 11:07:59;;;;;;;5.05;2.42;;;15.90;99.60;;;;;;5001370;28;20033;-69
2022/11/08 11:10:37;;;;;;;5.07;2.13;;;15.90;99.60;;;;;;5007898;28;20081;-70
2022/11/08 11:13:11;;;;;;;6.47;2.33;;;15.90;99.50;;;;;;5000001;28;20034;-70
2022/11/08 11:15:55;;;;;;;3.05;1.83;;;15.90;99.40;;;;;;5000388;28;20038;-69
2022/11/08 11:18:28;;;;;;;5.10;1.90;;;16.00;99.50;;;;;;5016157;28;20113;-70
2022/11/08 11:21:23;;;;;;;4.93;2.40;;;16.00;99.40;;;;;;5015047;28;20041;-70
2022/11/08 11:23:54;;;;;;;5.18;2.70;;;16.00;99.30;;;;;;5001246;28;20045;-70
2022/11/08 11:26:29;;;;;;;4.65;2.60;;;16.00;99.20;;;;;;5000660;28;20500;-70
2022/11/08 11:29:00;;;;;;;;;;;16.00;99.20;;;;;;5001470;28;20103;-69
2022/11/08 11:31:26;;;;;;;5.82;2.63;;;16.10;99.40;;;;;;4993391;28;19956;-70
2022/11/08 11:33:51;;;;;;;5.68;2.88;;;16.10;99.10;;;;;;5002979;28;20026;-70
2022/11/08 11:36:20;;;;;;;5.47;2.90;;;16.10;99.00;;;;;;5003217;28;20038;-69
2022/11/08 11:39:04;;;;;;;4.57;2.33;;;16.10;99.00;;;;;;5001342;28;20470;-69
2022/11/08 11:41:50;;;;;;;5.60;2.22;;;16.10;98.80;;;;;;5003096;28;20037;-69
2022/11/08 11:44:34;;;;;;;4.40;2.45;;;16.10;98.90;;;;;;5000267;28;20054;-69
2022/11/08 11:47:30;;;;;;;4.90;2.25;;;16.10;98.70;;;;;;5003923;28;20109;-70
2022/11/08 11:50:08;;;;;;;;;;;16.20;98.60;;;;;;5000930;28;20042;-70
2022/11/08 11:52:34;;;;;;;4.32;2.05;;;16.20;98.90;;;;;;5001785;28;19914;-70
2022/11/08 11:55:02;;;;;;;6.65;2.00;;;16.20;98.60;;;;;;5002487;28;20038;-70
2022/11/08 11:57:47;;;;;;;11.07;2.47;;;16.20;98.40;;;;;;4998495;28;20036;-70
2022/11/08 12:00:13;;;;;;;;;;;16.30;98.30;;;;;;5002316;28;20026;-70
2022/11/08 12:02:50;;;;;;;4.55;2.33;;;16.30;98.60;;;;;;5001542;28;19921;-70
2022/11/08 12:05:44;;;;;;;5.75;2.25;;;16.30;98.30;;;;;;5004102;28;20049;-70
2022/11/08 12:08:47;;;;;;;3.70;1.70;;;16.30;98.10;;;;;;5000942;28;20116;-70
2022/11/08 12:11:35;;;;;;;13.32;3.28;;;16.30;98.10;;;;;;4999413;28;20050;-71
2022/11/08 12:14:23;;;;;;;3.70;2.42;;;16.40;98.00;;;;;;5004856;28;20030;-70
2022/11/08 12:17:17;;;;;;;4.05;2.00;;;16.40;98.00;;;;;;5001644;28;20113;-70
2022/11/08 12:19:56;;;;;;;5.07;2.35;;;16.50;97.90;;;;;;5004132;28;20070;-70
2022/11/08 12:22:53;;;;;;;5.97;1.95;;;16.50;97.80;;;;;;5000743;28;20095;-69
2022/11/08 12:25:30;;;;;;;4.72;2.08;;;16.50;97.60;;;;;;5001901;28;20092;-70
2022/11/08 12:28:19;;;;;;;4.38;1.95;;;16.60;97.60;;;;;;5001460;28;20093;-69
2022/11/08 12:30:48;;;;;;;3.50;1.85;;;16.60;97.50;;;;;;5002223;28;20045;-71
2022/11/08 12:33:16;;;;;;;3.75;1.73;;;16.60;97.30;;;;;;4999927;28;20022;-71
2022/11/08 12:36:02;;;;;;;6.15;2.30;;;16.60;97.40;;;;;;4998151;28;20562;-70
2022/11/08 12:38:53;;;;;;;3.15;1.80;;;16.70;97.30;;;;;;4999213;28;20041;-70
2022/11/08 12:41:47;;;;;;;4.75;2.08;;;16.70;97.20;;;;;;5000881;28;20116;-70
2022/11/08 12:44:35;;;;;;;5.90;2.15;;;16.70;97.20;;;;;;5001629;28;20064;-70
2022/11/08 12:47:23;;;;;;;5.50;1.70;;;16.80;97.20;;;;;;5002575;28;20046;-70
2022/11/08 12:49:54;;;;;;;7.05;2.10;;;16.80;97.00;;;;;;5001019;28;20064;-70
2022/11/08 12:52:47;;;;;;;4.28;1.70;;;16.90;96.90;;;;;;5003304;28;20078;-69
2022/11/08 12:55:50;;;;;;;5.43;1.95;;;16.90;96.90;;;;;;5002243;28;20516;-70
2022/11/08 12:58:35;;;;;;;3.88;2.13;;;17.00;96.80;;;;;;4999056;28;20045;-69
2022/11/08 13:01:13;;;;;;;4.70;1.70;;;17.00;96.70;;;;;;5003023;28;20029;-70
2022/11/08 13:03:42;;;;;;;3.30;1.70;;;17.00;96.50;;;;;;5001000;28;20037;-70
2022/11/08 13:06:24;;;;;;;4.60;2.05;;;17.10;96.40;;;;;;5002137;28;20031;-70
2022/11/08 13:09:01;;;;;;;4.53;1.70;;;17.10;96.30;;;;;;5001928;28;20038;-70
2022/11/08 13:11:49;;;;;;;9.95;2.05;;;17.00;96.20;;;;;;5002030;28;20493;-70
2022/11/08 13:14:16;;;;;;;5.55;1.85;;;17.10;96.20;;;;;;5002715;28;20042;-70
2022/11/08 13:16:45;;;;;;;5.45;2.17;;;17.10;96.10;;;;;;5004501;28;20096;-70
2022/11/08 13:19:28;;;;;;;6.15;2.13;;;17.10;96.00;;;;;;5003407;28;20033;-70
2022/11/08 13:21:55;;;;;;;5.90;2.03;;;17.10;95.90;;;;;;5003941;28;20034;-71
2022/11/08 13:24:20;;;;;;;4.05;1.73;;;17.10;95.80;;;;;;5002721;28;20026;-70
2022/11/08 13:26:46;;;;;;;4.57;1.75;;;17.00;95.80;;;;;;5001677;28;20533;-70
2022/11/08 13:29:14;;;;;;;4.18;1.73;;;17.00;95.80;;;;;;5001965;28;20121;-70